sensor_id;sensor_type;location;lat;lon;timestamp;P1;durP1;ratioP1;P2;durP2;ratioP2
4827;SDS011;2428;48.732;9.148;2023-10-19T00:02:16;5.13;;;3.40;;
4827;SDS011;2428;48.732;9.148;2023-10-19T00:07:34;8.13;;;3.17;;
4827;SDS011;2428;48.732;9.148;2023-10-19T00:10:00;5.00;;;3.33;;
4827;SDS011;2428;48.732;9.148;2023-10-19T00:12:28;3.00;;;2.73;;
4827;SDS011;2428;48.732;9.148;2023-10-19T00:14:54;3.23;;;2.27;;
4827;SDS011;2428;48.732;9.148;2023-10-19T00:17:28;2.40;;;2.20;;
4827;SDS011;2428;48.732;9.148;2023-10-19T00:19:55;4.30;;;3.00;;
4827;SDS011;2428;48.732;9.148;2023-10-19T00:22:39;4.13;;;3.73;;
4827;SDS011;2428;48.732;9.148;2023-10-19T00:25:07;4.57;;;2.83;;
4827;SDS011;2428;48.732;9.148;2023-10-19T00:27:34;4.00;;;2.97;;
4827;SDS011;2428;48.732;9.148;2023-10-19T00:30:00;3.40;;;2.47;;
4827;SDS011;2428;48.732;9.148;2023-10-19T00:32:31;3.43;;;3.13;;
4827;SDS011;2428;48.732;9.148;2023-10-19T00:34:57;2.90;;;2.70;;
4827;SDS011;2428;48.732;9.148;2023-10-19T00:37:29;3.37;;;2.90;;
4827;SDS011;2428;48.732;9.148;2023-10-19T00:39:57;2.40;;;2.20;;
4827;SDS011;2428;48.732;9.148;2023-10-19T00:42:39;5.53;;;2.73;;
4827;SDS011;2428;48.732;9.148;2023-10-19T00:45:19;3.93;;;2.87;;
4827;SDS011;2428;48.732;9.148;2023-10-19T00:47:51;2.30;;;2.10;;
4827;SDS011;2428;48.732;9.148;2023-10-19T00:50:27;3.53;;;2.43;;
4827;SDS011;2428;48.732;9.148;2023-10-19T00:52:55;6.57;;;3.70;;
4827;SDS011;2428;48.732;9.148;2023-10-19T00:55:23;2.60;;;2.33;;
4827;SDS011;2428;48.732;9.148;2023-10-19T00:57:51;3.20;;;2.70;;
4827;SDS011;2428;48.732;9.148;2023-10-19T01:00:23;2.63;;;2.17;;
4827;SDS011;2428;48.732;9.148;2023-10-19T01:02:59;3.47;;;2.47;;
4827;SDS011;2428;48.732;9.148;2023-10-19T01:05:34;5.27;;;2.77;;
4827;SDS011;2428;48.732;9.148;2023-10-19T01:08:03;4.27;;;2.60;;
4827;SDS011;2428;48.732;9.148;2023-10-19T01:10:44;4.10;;;1.97;;
4827;SDS011;2428;48.732;9.148;2023-10-19T01:13:11;2.37;;;2.17;;
4827;SDS011;2428;48.732;9.148;2023-10-19T01:15:40;3.27;;;2.50;;
4827;SDS011;2428;48.732;9.148;2023-10-19T01:18:14;2.80;;;2.23;;
4827;SDS011;2428;48.732;9.148;2023-10-19T01:20:41;3.77;;;3.07;;
4827;SDS011;2428;48.732;9.148;2023-10-19T01:23:15;3.07;;;2.77;;
4827;SDS011;2428;48.732;9.148;2023-10-19T01:25:51;2.30;;;2.10;;
4827;SDS011;2428;48.732;9.148;2023-10-19T01:28:24;3.93;;;2.67;;
4827;SDS011;2428;48.732;9.148;2023-10-19T01:31:06;1.77;;;1.67;;
4827;SDS011;2428;48.732;9.148;2023-10-19T01:33:33;2.10;;;2.00;;
4827;SDS011;2428;48.732;9.148;2023-10-19T01:36:05;2.40;;;2.20;;
4827;SDS011;2428;48.732;9.148;2023-10-19T01:38:37;2.30;;;2.10;;
4827;SDS011;2428;48.732;9.148;2023-10-19T01:41:03;3.00;;;2.37;;
4827;SDS011;2428;48.732;9.148;2023-10-19T01:43:39;2.30;;;2.10;;
4827;SDS011;2428;48.732;9.148;2023-10-19T01:46:12;2.60;;;2.13;;
4827;SDS011;2428;48.732;9.148;2023-10-19T01:48:46;3.50;;;2.60;;
4827;SDS011;2428;48.732;9.148;2023-10-19T01:51:14;3.33;;;2.20;;
4827;SDS011;2428;48.732;9.148;2023-10-19T01:53:40;3.73;;;3.40;;
4827;SDS011;2428;48.732;9.148;2023-10-19T01:56:12;3.47;;;3.17;;
4827;SDS011;2428;48.732;9.148;2023-10-19T01:58:48;4.63;;;2.63;;
4827;SDS011;2428;48.732;9.148;2023-10-19T02:01:17;3.30;;;3.00;;
4827;SDS011;2428;48.732;9.148;2023-10-19T02:03:50;2.17;;;1.97;;
4827;SDS011;2428;48.732;9.148;2023-10-19T02:06:19;2.33;;;2.13;;
4827;SDS011;2428;48.732;9.148;2023-10-19T02:08:50;1.60;;;1.50;;
4827;SDS011;2428;48.732;9.148;2023-10-19T02:11:25;2.13;;;1.90;;
4827;SDS011;2428;48.732;9.148;2023-10-19T02:13:53;3.07;;;1.93;;
4827;SDS011;2428;48.732;9.148;2023-10-19T02:16:25;2.50;;;2.23;;
4827;SDS011;2428;48.732;9.148;2023-10-19T02:18:51;2.47;;;2.27;;
4827;SDS011;2428;48.732;9.148;2023-10-19T02:21:20;2.10;;;1.90;;
4827;SDS011;2428;48.732;9.148;2023-10-19T02:24:09;3.77;;;1.87;;
4827;SDS011;2428;48.732;9.148;2023-10-19T02:26:39;1.80;;;1.70;;
4827;SDS011;2428;48.732;9.148;2023-10-19T02:29:06;4.00;;;2.60;;
4827;SDS011;2428;48.732;9.148;2023-10-19T02:31:38;2.00;;;1.80;;
4827;SDS011;2428;48.732;9.148;2023-10-19T02:34:08;2.37;;;1.90;;
4827;SDS011;2428;48.732;9.148;2023-10-19T02:36:44;2.60;;;2.13;;
4827;SDS011;2428;48.732;9.148;2023-10-19T02:39:10;5.37;;;2.20;;
4827;SDS011;2428;48.732;9.148;2023-10-19T02:41:40;2.43;;;2.10;;
4827;SDS011;2428;48.732;9.148;2023-10-19T02:44:08;1.97;;;1.87;;
4827;SDS011;2428;48.732;9.148;2023-10-19T02:46:45;2.73;;;1.50;;
4827;SDS011;2428;48.732;9.148;2023-10-19T02:49:12;2.10;;;1.90;;
4827;SDS011;2428;48.732;9.148;2023-10-19T02:51:45;2.70;;;2.07;;
4827;SDS011;2428;48.732;9.148;2023-10-19T02:54:15;2.93;;;2.40;;
4827;SDS011;2428;48.732;9.148;2023-10-19T02:56:46;2.10;;;1.97;;
4827;SDS011;2428;48.732;9.148;2023-10-19T02:59:17;3.90;;;2.00;;
4827;SDS011;2428;48.732;9.148;2023-10-19T03:01:47;2.10;;;1.90;;
4827;SDS011;2428;48.732;9.148;2023-10-19T03:04:13;3.53;;;1.50;;
4827;SDS011;2428;48.732;9.148;2023-10-19T03:06:40;2.40;;;2.10;;
4827;SDS011;2428;48.732;9.148;2023-10-19T03:09:07;4.00;;;2.43;;
4827;SDS011;2428;48.732;9.148;2023-10-19T03:11:59;1.60;;;1.50;;
4827;SDS011;2428;48.732;9.148;2023-10-19T03:14:25;2.80;;;1.90;;
4827;SDS011;2428;48.732;9.148;2023-10-19T03:16:54;2.73;;;2.50;;
4827;SDS011;2428;48.732;9.148;2023-10-19T03:19:24;2.10;;;1.47;;
4827;SDS011;2428;48.732;9.148;2023-10-19T03:21:50;2.47;;;2.20;;
4827;SDS011;2428;48.732;9.148;2023-10-19T03:24:16;2.97;;;2.07;;
4827;SDS011;2428;48.732;9.148;2023-10-19T03:27:10;2.07;;;1.77;;
4827;SDS011;2428;48.732;9.148;2023-10-19T03:29:43;2.53;;;2.33;;
4827;SDS011;2428;48.732;9.148;2023-10-19T03:32:19;1.80;;;1.67;;
4827;SDS011;2428;48.732;9.148;2023-10-19T03:34:51;2.30;;;2.10;;
4827;SDS011;2428;48.732;9.148;2023-10-19T03:37:25;1.67;;;1.57;;
4827;SDS011;2428;48.732;9.148;2023-10-19T03:39:54;2.10;;;1.70;;
4827;SDS011;2428;48.732;9.148;2023-10-19T03:42:34;2.17;;;1.97;;
4827;SDS011;2428;48.732;9.148;2023-10-19T03:45:05;1.73;;;1.40;;
4827;SDS011;2428;48.732;9.148;2023-10-19T03:47:40;2.60;;;1.83;;
4827;SDS011;2428;48.732;9.148;2023-10-19T03:50:09;1.60;;;1.33;;
4827;SDS011;2428;48.732;9.148;2023-10-19T03:52:51;1.67;;;1.57;;
4827;SDS011;2428;48.732;9.148;2023-10-19T03:55:16;1.83;;;1.60;;
4827;SDS011;2428;48.732;9.148;2023-10-19T03:57:48;2.30;;;1.67;;
4827;SDS011;2428;48.732;9.148;2023-10-19T04:00:20;2.57;;;1.63;;
4827;SDS011;2428;48.732;9.148;2023-10-19T04:02:53;3.50;;;2.40;;
4827;SDS011;2428;48.732;9.148;2023-10-19T04:05:20;2.47;;;1.70;;
4827;SDS011;2428;48.732;9.148;2023-10-19T04:07:50;2.93;;;2.10;;
4827;SDS011;2428;48.732;9.148;2023-10-19T04:10:19;2.73;;;2.13;;
4827;SDS011;2428;48.732;9.148;2023-10-19T04:12:54;2.20;;;2.00;;
4827;SDS011;2428;48.732;9.148;2023-10-19T04:15:20;1.50;;;1.40;;
4827;SDS011;2428;48.732;9.148;2023-10-19T04:17:46;2.53;;;2.33;;
4827;SDS011;2428;48.732;9.148;2023-10-19T04:20:16;2.07;;;1.80;;
4827;SDS011;2428;48.732;9.148;2023-10-19T04:22:52;2.43;;;1.97;;
4827;SDS011;2428;48.732;9.148;2023-10-19T04:25:19;3.03;;;1.33;;
4827;SDS011;2428;48.732;9.148;2023-10-19T04:27:45;1.63;;;1.53;;
4827;SDS011;2428;48.732;9.148;2023-10-19T04:30:12;2.20;;;1.53;;
4827;SDS011;2428;48.732;9.148;2023-10-19T04:32:45;4.40;;;2.10;;
4827;SDS011;2428;48.732;9.148;2023-10-19T04:35:14;3.40;;;2.30;;
4827;SDS011;2428;48.732;9.148;2023-10-19T04:37:52;1.70;;;1.60;;
4827;SDS011;2428;48.732;9.148;2023-10-19T04:40:23;2.27;;;1.73;;
4827;SDS011;2428;48.732;9.148;2023-10-19T04:42:50;2.30;;;2.03;;
4827;SDS011;2428;48.732;9.148;2023-10-19T04:45:16;2.20;;;1.73;;
4827;SDS011;2428;48.732;9.148;2023-10-19T04:47:42;3.00;;;2.37;;
4827;SDS011;2428;48.732;9.148;2023-10-19T04:50:08;3.40;;;2.73;;
4827;SDS011;2428;48.732;9.148;2023-10-19T04:52:38;3.10;;;1.87;;
4827;SDS011;2428;48.732;9.148;2023-10-19T04:55:06;2.80;;;2.27;;
4827;SDS011;2428;48.732;9.148;2023-10-19T04:57:32;2.83;;;2.23;;
4827;SDS011;2428;48.732;9.148;2023-10-19T04:59:58;1.83;;;1.67;;
4827;SDS011;2428;48.732;9.148;2023-10-19T05:02:23;1.40;;;1.30;;
4827;SDS011;2428;48.732;9.148;2023-10-19T05:04:49;3.97;;;2.17;;
4827;SDS011;2428;48.732;9.148;2023-10-19T05:07:15;1.83;;;1.70;;
4827;SDS011;2428;48.732;9.148;2023-10-19T05:10:01;1.60;;;1.40;;
4827;SDS011;2428;48.732;9.148;2023-10-19T05:12:27;2.90;;;2.70;;
4827;SDS011;2428;48.732;9.148;2023-10-19T05:14:58;2.10;;;1.57;;
4827;SDS011;2428;48.732;9.148;2023-10-19T05:17:24;2.60;;;1.90;;
4827;SDS011;2428;48.732;9.148;2023-10-19T05:19:50;3.57;;;2.43;;
4827;SDS011;2428;48.732;9.148;2023-10-19T05:22:16;3.20;;;2.00;;
4827;SDS011;2428;48.732;9.148;2023-10-19T05:24:41;2.87;;;2.67;;
4827;SDS011;2428;48.732;9.148;2023-10-19T05:27:07;2.07;;;1.87;;
4827;SDS011;2428;48.732;9.148;2023-10-19T05:29:35;4.80;;;2.80;;
4827;SDS011;2428;48.732;9.148;2023-10-19T05:32:01;4.00;;;2.00;;
4827;SDS011;2428;48.732;9.148;2023-10-19T05:34:28;2.43;;;2.23;;
4827;SDS011;2428;48.732;9.148;2023-10-19T05:37:00;3.33;;;2.73;;
4827;SDS011;2428;48.732;9.148;2023-10-19T05:39:27;3.60;;;2.70;;
4827;SDS011;2428;48.732;9.148;2023-10-19T05:41:54;3.87;;;2.80;;
4827;SDS011;2428;48.732;9.148;2023-10-19T05:44:20;3.33;;;2.87;;
4827;SDS011;2428;48.732;9.148;2023-10-19T05:46:46;3.70;;;2.80;;
4827;SDS011;2428;48.732;9.148;2023-10-19T05:49:12;2.37;;;2.00;;
4827;SDS011;2428;48.732;9.148;2023-10-19T05:51:44;7.00;;;3.00;;
4827;SDS011;2428;48.732;9.148;2023-10-19T05:54:09;3.50;;;2.23;;
4827;SDS011;2428;48.732;9.148;2023-10-19T05:56:35;3.53;;;2.40;;
4827;SDS011;2428;48.732;9.148;2023-10-19T05:59:01;2.77;;;2.57;;
4827;SDS011;2428;48.732;9.148;2023-10-19T06:01:27;3.60;;;2.50;;
4827;SDS011;2428;48.732;9.148;2023-10-19T06:03:53;2.87;;;2.27;;
4827;SDS011;2428;48.732;9.148;2023-10-19T06:06:21;4.50;;;2.50;;
4827;SDS011;2428;48.732;9.148;2023-10-19T06:08:47;3.73;;;2.13;;
4827;SDS011;2428;48.732;9.148;2023-10-19T06:11:14;2.20;;;2.00;;
4827;SDS011;2428;48.732;9.148;2023-10-19T06:13:40;2.10;;;1.77;;
4827;SDS011;2428;48.732;9.148;2023-10-19T06:16:05;2.43;;;2.23;;
4827;SDS011;2428;48.732;9.148;2023-10-19T06:18:31;3.50;;;2.53;;
4827;SDS011;2428;48.732;9.148;2023-10-19T06:21:09;2.60;;;2.10;;
4827;SDS011;2428;48.732;9.148;2023-10-19T06:23:35;2.50;;;1.60;;
4827;SDS011;2428;48.732;9.148;2023-10-19T06:26:08;4.63;;;1.73;;
4827;SDS011;2428;48.732;9.148;2023-10-19T06:28:36;2.67;;;2.00;;
4827;SDS011;2428;48.732;9.148;2023-10-19T06:31:03;3.70;;;2.47;;
4827;SDS011;2428;48.732;9.148;2023-10-19T06:33:29;2.70;;;2.50;;
4827;SDS011;2428;48.732;9.148;2023-10-19T06:35:58;2.20;;;2.00;;
4827;SDS011;2428;48.732;9.148;2023-10-19T06:38:24;2.80;;;2.10;;
4827;SDS011;2428;48.732;9.148;2023-10-19T06:40:51;2.73;;;2.50;;
4827;SDS011;2428;48.732;9.148;2023-10-19T06:43:16;1.93;;;1.80;;
4827;SDS011;2428;48.732;9.148;2023-10-19T06:45:44;2.90;;;2.20;;
4827;SDS011;2428;48.732;9.148;2023-10-19T06:48:10;1.70;;;1.60;;
4827;SDS011;2428;48.732;9.148;2023-10-19T06:50:36;1.30;;;1.20;;
4827;SDS011;2428;48.732;9.148;2023-10-19T06:53:07;2.43;;;2.20;;
4827;SDS011;2428;48.732;9.148;2023-10-19T06:55:34;6.20;;;1.97;;
4827;SDS011;2428;48.732;9.148;2023-10-19T06:58:00;4.07;;;2.40;;
4827;SDS011;2428;48.732;9.148;2023-10-19T07:00:26;3.33;;;1.90;;
4827;SDS011;2428;48.732;9.148;2023-10-19T07:02:53;2.60;;;1.80;;
4827;SDS011;2428;48.732;9.148;2023-10-19T07:05:20;3.90;;;2.43;;
4827;SDS011;2428;48.732;9.148;2023-10-19T07:07:47;2.20;;;2.00;;
4827;SDS011;2428;48.732;9.148;2023-10-19T07:10:14;3.73;;;2.63;;
4827;SDS011;2428;48.732;9.148;2023-10-19T07:12:45;3.40;;;2.67;;
4827;SDS011;2428;48.732;9.148;2023-10-19T07:15:12;3.43;;;2.30;;
4827;SDS011;2428;48.732;9.148;2023-10-19T07:17:42;4.63;;;2.83;;
4827;SDS011;2428;48.732;9.148;2023-10-19T07:20:09;2.27;;;2.07;;
4827;SDS011;2428;48.732;9.148;2023-10-19T07:22:50;3.30;;;2.40;;
4827;SDS011;2428;48.732;9.148;2023-10-19T07:25:16;2.43;;;2.23;;
4827;SDS011;2428;48.732;9.148;2023-10-19T07:27:48;2.40;;;1.90;;
4827;SDS011;2428;48.732;9.148;2023-10-19T07:30:15;4.73;;;2.03;;
4827;SDS011;2428;48.732;9.148;2023-10-19T07:32:54;1.90;;;1.77;;
4827;SDS011;2428;48.732;9.148;2023-10-19T07:35:23;3.10;;;2.00;;
4827;SDS011;2428;48.732;9.148;2023-10-19T07:37:50;2.50;;;2.30;;
4827;SDS011;2428;48.732;9.148;2023-10-19T07:40:28;2.90;;;2.40;;
4827;SDS011;2428;48.732;9.148;2023-10-19T07:42:54;2.23;;;2.07;;
4827;SDS011;2428;48.732;9.148;2023-10-19T07:45:40;2.50;;;2.17;;
4827;SDS011;2428;48.732;9.148;2023-10-19T07:48:06;2.70;;;2.47;;
4827;SDS011;2428;48.732;9.148;2023-10-19T07:50:32;3.90;;;2.37;;
4827;SDS011;2428;48.732;9.148;2023-10-19T07:53:01;3.70;;;2.70;;
4827;SDS011;2428;48.732;9.148;2023-10-19T07:55:27;2.83;;;1.40;;
4827;SDS011;2428;48.732;9.148;2023-10-19T07:57:56;3.87;;;2.40;;
4827;SDS011;2428;48.732;9.148;2023-10-19T08:00:25;4.97;;;2.63;;
4827;SDS011;2428;48.732;9.148;2023-10-19T08:02:54;3.07;;;2.70;;
4827;SDS011;2428;48.732;9.148;2023-10-19T08:05:20;2.53;;;1.97;;
4827;SDS011;2428;48.732;9.148;2023-10-19T08:07:51;2.60;;;1.83;;
4827;SDS011;2428;48.732;9.148;2023-10-19T08:10:17;4.93;;;3.17;;
4827;SDS011;2428;48.732;9.148;2023-10-19T08:12:45;3.20;;;2.57;;
4827;SDS011;2428;48.732;9.148;2023-10-19T08:15:17;4.27;;;2.97;;
4827;SDS011;2428;48.732;9.148;2023-10-19T08:17:45;2.93;;;2.73;;
4827;SDS011;2428;48.732;9.148;2023-10-19T08:20:12;2.60;;;2.40;;
4827;SDS011;2428;48.732;9.148;2023-10-19T08:22:47;4.20;;;2.87;;
4827;SDS011;2428;48.732;9.148;2023-10-19T08:25:14;6.00;;;3.27;;
4827;SDS011;2428;48.732;9.148;2023-10-19T08:27:44;3.23;;;2.47;;
4827;SDS011;2428;48.732;9.148;2023-10-19T08:30:16;3.20;;;2.40;;
4827;SDS011;2428;48.732;9.148;2023-10-19T08:32:43;5.40;;;3.97;;
4827;SDS011;2428;48.732;9.148;2023-10-19T08:35:13;7.33;;;3.70;;
4827;SDS011;2428;48.732;9.148;2023-10-19T08:37:39;4.97;;;3.20;;
4827;SDS011;2428;48.732;9.148;2023-10-19T08:40:10;4.13;;;3.73;;
4827;SDS011;2428;48.732;9.148;2023-10-19T08:42:43;5.43;;;4.60;;
4827;SDS011;2428;48.732;9.148;2023-10-19T08:45:13;6.33;;;3.80;;
4827;SDS011;2428;48.732;9.148;2023-10-19T08:47:51;6.07;;;4.87;;
4827;SDS011;2428;48.732;9.148;2023-10-19T08:50:21;6.60;;;3.50;;
4827;SDS011;2428;48.732;9.148;2023-10-19T08:52:49;4.90;;;4.07;;
4827;SDS011;2428;48.732;9.148;2023-10-19T08:55:29;4.20;;;3.80;;
4827;SDS011;2428;48.732;9.148;2023-10-19T08:57:59;7.50;;;5.40;;
4827;SDS011;2428;48.732;9.148;2023-10-19T09:00:25;8.20;;;3.83;;
4827;SDS011;2428;48.732;9.148;2023-10-19T09:02:52;6.73;;;3.63;;
4827;SDS011;2428;48.732;9.148;2023-10-19T09:05:21;3.33;;;3.03;;
4827;SDS011;2428;48.732;9.148;2023-10-19T09:07:53;5.20;;;4.70;;
4827;SDS011;2428;48.732;9.148;2023-10-19T09:10:22;4.27;;;3.00;;
4827;SDS011;2428;48.732;9.148;2023-10-19T09:15:43;3.97;;;3.20;;
4827;SDS011;2428;48.732;9.148;2023-10-19T09:18:18;3.73;;;3.33;;
4827;SDS011;2428;48.732;9.148;2023-10-19T09:20:45;4.10;;;3.70;;
4827;SDS011;2428;48.732;9.148;2023-10-19T09:23:31;2.60;;;2.40;;
4827;SDS011;2428;48.732;9.148;2023-10-19T09:25:58;3.77;;;2.70;;
4827;SDS011;2428;48.732;9.148;2023-10-19T09:28:34;3.30;;;2.30;;
4827;SDS011;2428;48.732;9.148;2023-10-19T09:31:01;3.10;;;2.60;;
4827;SDS011;2428;48.732;9.148;2023-10-19T09:33:27;2.40;;;1.90;;
4827;SDS011;2428;48.732;9.148;2023-10-19T09:35:54;4.90;;;3.60;;
4827;SDS011;2428;48.732;9.148;2023-10-19T09:38:21;3.77;;;2.30;;
4827;SDS011;2428;48.732;9.148;2023-10-19T09:40:47;3.57;;;3.00;;
4827;SDS011;2428;48.732;9.148;2023-10-19T09:45:52;3.63;;;3.13;;
4827;SDS011;2428;48.732;9.148;2023-10-19T09:48:23;5.40;;;2.80;;
4827;SDS011;2428;48.732;9.148;2023-10-19T09:50:53;3.13;;;2.90;;
4827;SDS011;2428;48.732;9.148;2023-10-19T09:53:27;2.87;;;2.07;;
4827;SDS011;2428;48.732;9.148;2023-10-19T09:55:57;3.00;;;2.63;;
4827;SDS011;2428;48.732;9.148;2023-10-19T09:58:25;3.37;;;2.83;;
4827;SDS011;2428;48.732;9.148;2023-10-19T10:00:54;5.30;;;3.87;;
4827;SDS011;2428;48.732;9.148;2023-10-19T10:06:11;4.90;;;4.00;;
4827;SDS011;2428;48.732;9.148;2023-10-19T10:08:40;3.63;;;3.37;;
4827;SDS011;2428;48.732;9.148;2023-10-19T10:11:13;5.80;;;4.70;;
4827;SDS011;2428;48.732;9.148;2023-10-19T10:13:42;5.43;;;4.60;;
4827;SDS011;2428;48.732;9.148;2023-10-19T10:16:09;4.90;;;4.33;;
4827;SDS011;2428;48.732;9.148;2023-10-19T10:18:49;8.50;;;4.40;;
4827;SDS011;2428;48.732;9.148;2023-10-19T10:21:22;5.53;;;4.93;;
4827;SDS011;2428;48.732;9.148;2023-10-19T10:26:58;6.50;;;4.70;;
4827;SDS011;2428;48.732;9.148;2023-10-19T10:29:28;5.50;;;5.00;;
4827;SDS011;2428;48.732;9.148;2023-10-19T10:31:56;4.50;;;4.10;;
4827;SDS011;2428;48.732;9.148;2023-10-19T10:37:22;5.67;;;4.90;;
4827;SDS011;2428;48.732;9.148;2023-10-19T10:39:47;6.00;;;5.40;;
4827;SDS011;2428;48.732;9.148;2023-10-19T10:42:16;6.10;;;4.67;;
4827;SDS011;2428;48.732;9.148;2023-10-19T10:44:45;6.60;;;5.30;;
4827;SDS011;2428;48.732;9.148;2023-10-19T10:47:12;7.37;;;4.97;;
4827;SDS011;2428;48.732;9.148;2023-10-19T10:54:55;6.47;;;4.93;;
4827;SDS011;2428;48.732;9.148;2023-10-19T10:57:21;5.00;;;4.40;;
4827;SDS011;2428;48.732;9.148;2023-10-19T11:00:00;7.00;;;4.60;;
4827;SDS011;2428;48.732;9.148;2023-10-19T11:02:37;3.73;;;3.43;;
4827;SDS011;2428;48.732;9.148;2023-10-19T11:05:11;3.87;;;3.47;;
4827;SDS011;2428;48.732;9.148;2023-10-19T11:10:39;5.93;;;3.53;;
4827;SDS011;2428;48.732;9.148;2023-10-19T11:13:10;3.23;;;2.53;;
4827;SDS011;2428;48.732;9.148;2023-10-19T11:15:51;2.20;;;2.00;;
4827;SDS011;2428;48.732;9.148;2023-10-19T11:18:39;2.33;;;2.13;;
4827;SDS011;2428;48.732;9.148;2023-10-19T11:21:12;1.43;;;1.33;;
4827;SDS011;2428;48.732;9.148;2023-10-19T11:23:49;3.10;;;1.60;;
4827;SDS011;2428;48.732;9.148;2023-10-19T11:26:20;2.70;;;1.67;;
4827;SDS011;2428;48.732;9.148;2023-10-19T11:28:46;1.70;;;1.50;;
4827;SDS011;2428;48.732;9.148;2023-10-19T11:31:21;3.07;;;2.60;;
4827;SDS011;2428;48.732;9.148;2023-10-19T11:33:48;1.97;;;1.63;;
4827;SDS011;2428;48.732;9.148;2023-10-19T11:36:15;2.10;;;1.47;;
4827;SDS011;2428;48.732;9.148;2023-10-19T11:38:42;2.37;;;1.93;;
4827;SDS011;2428;48.732;9.148;2023-10-19T11:41:12;3.77;;;2.43;;
4827;SDS011;2428;48.732;9.148;2023-10-19T11:43:39;1.67;;;1.37;;
4827;SDS011;2428;48.732;9.148;2023-10-19T11:46:15;2.20;;;2.00;;
4827;SDS011;2428;48.732;9.148;2023-10-19T11:48:43;1.60;;;1.50;;
4827;SDS011;2428;48.732;9.148;2023-10-19T11:51:09;2.70;;;1.67;;
4827;SDS011;2428;48.732;9.148;2023-10-19T11:53:45;1.93;;;1.47;;
4827;SDS011;2428;48.732;9.148;2023-10-19T11:56:11;1.63;;;1.30;;
4827;SDS011;2428;48.732;9.148;2023-10-19T11:58:38;3.07;;;2.43;;
4827;SDS011;2428;48.732;9.148;2023-10-19T12:01:06;1.70;;;1.53;;
4827;SDS011;2428;48.732;9.148;2023-10-19T12:03:34;1.60;;;1.30;;
4827;SDS011;2428;48.732;9.148;2023-10-19T12:06:04;2.33;;;1.80;;
4827;SDS011;2428;48.732;9.148;2023-10-19T12:08:34;4.50;;;1.83;;
4827;SDS011;2428;48.732;9.148;2023-10-19T12:11:00;2.43;;;1.93;;
4827;SDS011;2428;48.732;9.148;2023-10-19T12:13:28;2.17;;;1.70;;
4827;SDS011;2428;48.732;9.148;2023-10-19T12:15:54;2.10;;;1.80;;
4827;SDS011;2428;48.732;9.148;2023-10-19T12:18:25;2.67;;;1.40;;
4827;SDS011;2428;48.732;9.148;2023-10-19T12:20:53;2.30;;;2.07;;
4827;SDS011;2428;48.732;9.148;2023-10-19T12:23:22;2.80;;;2.30;;
4827;SDS011;2428;48.732;9.148;2023-10-19T12:25:57;2.37;;;1.70;;
4827;SDS011;2428;48.732;9.148;2023-10-19T12:28:22;2.20;;;1.80;;
4827;SDS011;2428;48.732;9.148;2023-10-19T12:30:49;2.10;;;1.93;;
4827;SDS011;2428;48.732;9.148;2023-10-19T12:33:15;2.13;;;1.33;;
4827;SDS011;2428;48.732;9.148;2023-10-19T12:35:41;3.53;;;1.80;;
4827;SDS011;2428;48.732;9.148;2023-10-19T12:38:11;1.57;;;1.47;;
4827;SDS011;2428;48.732;9.148;2023-10-19T12:40:42;1.90;;;1.37;;
4827;SDS011;2428;48.732;9.148;2023-10-19T12:43:09;1.57;;;1.47;;
4827;SDS011;2428;48.732;9.148;2023-10-19T12:45:36;3.67;;;2.47;;
4827;SDS011;2428;48.732;9.148;2023-10-19T12:48:02;3.33;;;2.07;;
4827;SDS011;2428;48.732;9.148;2023-10-19T12:50:33;1.93;;;1.83;;
4827;SDS011;2428;48.732;9.148;2023-10-19T12:52:59;4.63;;;2.57;;
4827;SDS011;2428;48.732;9.148;2023-10-19T12:55:25;4.47;;;2.80;;
4827;SDS011;2428;48.732;9.148;2023-10-19T12:57:55;5.97;;;4.00;;
4827;SDS011;2428;48.732;9.148;2023-10-19T13:00:22;5.20;;;4.37;;
4827;SDS011;2428;48.732;9.148;2023-10-19T13:02:54;5.50;;;4.03;;
4827;SDS011;2428;48.732;9.148;2023-10-19T13:05:26;6.50;;;4.20;;
4827;SDS011;2428;48.732;9.148;2023-10-19T13:07:53;7.93;;;5.53;;
4827;SDS011;2428;48.732;9.148;2023-10-19T13:10:23;7.13;;;5.07;;
4827;SDS011;2428;48.732;9.148;2023-10-19T13:12:52;7.73;;;5.17;;
4827;SDS011;2428;48.732;9.148;2023-10-19T13:15:19;6.67;;;5.40;;
4827;SDS011;2428;48.732;9.148;2023-10-19T13:17:47;5.37;;;4.80;;
4827;SDS011;2428;48.732;9.148;2023-10-19T13:20:13;9.03;;;5.80;;
4827;SDS011;2428;48.732;9.148;2023-10-19T13:22:42;5.33;;;4.77;;
4827;SDS011;2428;48.732;9.148;2023-10-19T13:25:09;9.00;;;6.20;;
4827;SDS011;2428;48.732;9.148;2023-10-19T13:27:38;8.00;;;5.03;;
4827;SDS011;2428;48.732;9.148;2023-10-19T13:30:06;6.00;;;4.80;;
4827;SDS011;2428;48.732;9.148;2023-10-19T13:32:35;7.20;;;4.97;;
4827;SDS011;2428;48.732;9.148;2023-10-19T13:35:01;8.77;;;4.80;;
4827;SDS011;2428;48.732;9.148;2023-10-19T13:37:27;7.77;;;4.87;;
4827;SDS011;2428;48.732;9.148;2023-10-19T13:39:53;5.70;;;4.47;;
4827;SDS011;2428;48.732;9.148;2023-10-19T13:42:19;7.63;;;5.50;;
4827;SDS011;2428;48.732;9.148;2023-10-19T13:44:46;8.43;;;5.70;;
4827;SDS011;2428;48.732;9.148;2023-10-19T13:47:12;5.00;;;4.50;;
4827;SDS011;2428;48.732;9.148;2023-10-19T13:49:38;5.17;;;4.67;;
4827;SDS011;2428;48.732;9.148;2023-10-19T13:52:04;5.40;;;4.57;;
4827;SDS011;2428;48.732;9.148;2023-10-19T13:54:30;7.47;;;4.83;;
4827;SDS011;2428;48.732;9.148;2023-10-19T13:56:55;5.40;;;4.90;;
4827;SDS011;2428;48.732;9.148;2023-10-19T13:59:24;6.60;;;5.90;;
4827;SDS011;2428;48.732;9.148;2023-10-19T14:01:58;5.40;;;4.87;;
4827;SDS011;2428;48.732;9.148;2023-10-19T14:04:24;9.00;;;5.57;;
4827;SDS011;2428;48.732;9.148;2023-10-19T14:06:56;7.20;;;6.20;;
4827;SDS011;2428;48.732;9.148;2023-10-19T14:09:21;6.93;;;5.60;;
4827;SDS011;2428;48.732;9.148;2023-10-19T14:11:48;10.70;;;7.40;;
4827;SDS011;2428;48.732;9.148;2023-10-19T14:14:14;6.30;;;5.10;;
4827;SDS011;2428;48.732;9.148;2023-10-19T14:16:40;5.93;;;4.40;;
4827;SDS011;2428;48.732;9.148;2023-10-19T14:19:06;6.13;;;5.53;;
4827;SDS011;2428;48.732;9.148;2023-10-19T14:21:31;6.33;;;5.27;;
4827;SDS011;2428;48.732;9.148;2023-10-19T14:24:02;5.37;;;4.90;;
4827;SDS011;2428;48.732;9.148;2023-10-19T14:26:28;8.83;;;5.00;;
4827;SDS011;2428;48.732;9.148;2023-10-19T14:28:54;5.87;;;4.83;;
4827;SDS011;2428;48.732;9.148;2023-10-19T14:31:20;6.37;;;4.90;;
4827;SDS011;2428;48.732;9.148;2023-10-19T14:33:45;6.73;;;5.17;;
4827;SDS011;2428;48.732;9.148;2023-10-19T14:36:11;6.13;;;5.30;;
4827;SDS011;2428;48.732;9.148;2023-10-19T14:38:37;6.47;;;4.90;;
4827;SDS011;2428;48.732;9.148;2023-10-19T14:41:04;8.80;;;5.10;;
4827;SDS011;2428;48.732;9.148;2023-10-19T14:43:30;6.03;;;4.37;;
4827;SDS011;2428;48.732;9.148;2023-10-19T14:45:55;6.53;;;4.70;;
4827;SDS011;2428;48.732;9.148;2023-10-19T14:48:22;8.10;;;5.00;;
4827;SDS011;2428;48.732;9.148;2023-10-19T14:50:49;6.43;;;5.17;;
4827;SDS011;2428;48.732;9.148;2023-10-19T14:53:16;8.87;;;5.50;;
4827;SDS011;2428;48.732;9.148;2023-10-19T14:55:43;7.07;;;5.80;;
4827;SDS011;2428;48.732;9.148;2023-10-19T14:58:11;7.73;;;6.13;;
4827;SDS011;2428;48.732;9.148;2023-10-19T15:00:37;7.20;;;5.50;;
4827;SDS011;2428;48.732;9.148;2023-10-19T15:03:07;10.80;;;5.57;;
4827;SDS011;2428;48.732;9.148;2023-10-19T15:05:33;7.13;;;5.40;;
4827;SDS011;2428;48.732;9.148;2023-10-19T15:08:01;8.20;;;6.70;;
4827;SDS011;2428;48.732;9.148;2023-10-19T15:10:27;6.97;;;5.60;;
4827;SDS011;2428;48.732;9.148;2023-10-19T15:12:54;7.33;;;6.30;;
4827;SDS011;2428;48.732;9.148;2023-10-19T15:15:26;8.77;;;5.77;;
4827;SDS011;2428;48.732;9.148;2023-10-19T15:17:53;5.57;;;5.07;;
4827;SDS011;2428;48.732;9.148;2023-10-19T15:20:20;5.73;;;5.10;;
4827;SDS011;2428;48.732;9.148;2023-10-19T15:22:47;6.57;;;4.97;;
4827;SDS011;2428;48.732;9.148;2023-10-19T15:25:13;6.93;;;5.30;;
4827;SDS011;2428;48.732;9.148;2023-10-19T15:27:40;6.63;;;6.00;;
4827;SDS011;2428;48.732;9.148;2023-10-19T15:30:08;6.40;;;5.80;;
4827;SDS011;2428;48.732;9.148;2023-10-19T15:32:36;5.33;;;4.70;;
4827;SDS011;2428;48.732;9.148;2023-10-19T15:35:02;6.50;;;4.33;;
4827;SDS011;2428;48.732;9.148;2023-10-19T15:37:28;7.50;;;6.13;;
4827;SDS011;2428;48.732;9.148;2023-10-19T15:39:54;6.57;;;4.73;;
4827;SDS011;2428;48.732;9.148;2023-10-19T15:42:20;4.90;;;4.40;;
4827;SDS011;2428;48.732;9.148;2023-10-19T15:44:48;6.40;;;5.27;;
4827;SDS011;2428;48.732;9.148;2023-10-19T15:47:15;6.43;;;5.30;;
4827;SDS011;2428;48.732;9.148;2023-10-19T15:49:52;6.33;;;4.80;;
4827;SDS011;2428;48.732;9.148;2023-10-19T15:52:22;5.27;;;4.40;;
4827;SDS011;2428;48.732;9.148;2023-10-19T15:54:49;5.83;;;4.73;;